createdAt,value
2023-03-24T00:03:38.370Z,5.43
2023-03-24T00:08:44.269Z,5.10
2023-03-24T00:13:50.985Z,5.82
2023-03-24T00:18:55.908Z,6.50
2023-03-24T00:24:01.516Z,6.00
2023-03-24T00:29:08.967Z,5.40
2023-03-24T00:34:13.857Z,5.65
2023-03-24T00:39:19.186Z,4.53
2023-03-24T00:44:25.196Z,5.38
2023-03-24T00:49:43.400Z,3.95
2023-03-24T00:54:48.436Z,4.10
2023-03-24T00:59:56.283Z,4.07
2023-03-24T01:05:02.559Z,5.20
2023-03-24T01:10:08.691Z,3.78
2023-03-24T01:15:19.288Z,3.42
2023-03-24T01:20:25.395Z,5.85
2023-03-24T01:25:30.730Z,5.00
2023-03-24T01:30:37.179Z,4.40
2023-03-24T01:35:41.488Z,4.10
2023-03-24T01:40:48.093Z,4.18
2023-03-24T01:46:19.005Z,4.15
2023-03-24T01:51:26.151Z,4.50
2023-03-24T01:56:34.992Z,4.63
2023-03-24T02:07:06.800Z,4.47
2023-03-24T02:12:11.301Z,3.90
2023-03-24T02:17:36.234Z,5.20
2023-03-24T02:23:31.564Z,5.95
2023-03-24T02:28:45.541Z,5.25
2023-03-24T02:34:46.365Z,3.42
2023-03-24T02:40:04.405Z,3.58
2023-03-24T02:45:19.474Z,3.70
2023-03-24T02:50:31.204Z,3.50
2023-03-24T02:55:43.292Z,3.95
2023-03-24T03:00:51.722Z,3.28
2023-03-24T03:06:21.752Z,3.72
2023-03-24T03:11:27.509Z,4.18
2023-03-24T03:16:39.368Z,4.32
2023-03-24T03:21:47.428Z,4.70
2023-03-24T03:26:57.814Z,5.93
2023-03-24T03:32:08.010Z,5.30
2023-03-24T03:37:21.837Z,5.88
2023-03-24T03:42:27.727Z,6.55
2023-03-24T03:47:33.890Z,6.20
2023-03-24T03:52:42.051Z,6.97
2023-03-24T03:57:48.492Z,9.65
2023-03-24T04:03:28.001Z,10.18
2023-03-24T04:08:46.716Z,9.45
2023-03-24T04:14:37.572Z,8.05
2023-03-24T04:20:14.391Z,7.78
2023-03-24T04:25:26.022Z,8.43
2023-03-24T04:30:43.130Z,8.75
2023-03-24T04:35:56.748Z,10.23
2023-03-24T04:41:12.188Z,10.18
2023-03-24T04:46:19.380Z,11.57
2023-03-24T04:51:50.218Z,10.63
2023-03-24T04:57:01.943Z,13.00
2023-03-24T05:02:27.905Z,13.47
2023-03-24T05:07:36.948Z,17.42
2023-03-24T05:12:46.607Z,16.60
2023-03-24T05:17:59.127Z,14.68
2023-03-24T05:23:03.458Z,14.32
2023-03-24T05:28:07.846Z,17.38
2023-03-24T05:33:14.765Z,17.77
2023-03-24T05:38:19.266Z,15.25
2023-03-24T05:43:28.007Z,15.68
2023-03-24T05:48:47.055Z,14.90
2023-03-24T05:53:56.350Z,15.48
2023-03-24T05:59:09.342Z,16.98
2023-03-24T06:04:33.700Z,18.27
2023-03-24T06:09:51.069Z,18.80
2023-03-24T06:14:57.067Z,18.03
2023-03-24T06:20:06.080Z,18.77
2023-03-24T06:25:30.245Z,20.23
2023-03-24T06:30:47.654Z,19.27
2023-03-24T06:36:01.285Z,20.00
2023-03-24T06:41:08.072Z,21.40
2023-03-24T06:46:13.294Z,21.30
2023-03-24T06:51:22.401Z,21.08
2023-03-24T06:56:27.481Z,23.13
2023-03-24T07:01:36.504Z,22.03
2023-03-24T07:07:12.492Z,20.48
2023-03-24T07:12:24.903Z,18.52
2023-03-24T07:17:29.985Z,17.63
2023-03-24T07:22:59.752Z,17.70
2023-03-24T07:28:20.409Z,16.38
2023-03-24T07:33:25.524Z,15.23
2023-03-24T07:38:31.249Z,16.25
2023-03-24T07:43:40.734Z,16.27
2023-03-24T07:49:18.234Z,15.02
2023-03-24T07:54:35.666Z,16.02
2023-03-24T07:59:40.149Z,15.77
2023-03-24T08:04:53.883Z,15.40
2023-03-24T08:10:32.202Z,13.20
2023-03-24T08:15:36.767Z,15.50
2023-03-24T08:20:41.192Z,18.02
2023-03-24T08:25:47.886Z,17.17
2023-03-24T08:30:52.467Z,13.23
2023-03-24T08:35:58.069Z,10.82
2023-03-24T08:41:07.044Z,9.70
2023-03-24T08:46:13.675Z,8.67
2023-03-24T08:51:19.314Z,7.88
2023-03-24T08:56:25.990Z,8.20
2023-03-24T09:01:30.320Z,7.38
2023-03-24T09:06:35.162Z,7.68
2023-03-24T09:11:40.934Z,6.13
2023-03-24T09:16:48.814Z,6.78
2023-03-24T09:21:53.229Z,6.53
2023-03-24T09:26:59.202Z,6.30
2023-03-24T09:32:03.461Z,6.57
2023-03-24T09:37:08.306Z,6.18
2023-03-24T09:42:20.472Z,6.38
2023-03-24T09:47:30.713Z,6.07
2023-03-24T09:52:40.722Z,10.13
2023-03-24T09:57:49.423Z,6.30
2023-03-24T10:02:56.868Z,5.70
2023-03-24T10:08:12.517Z,5.43
2023-03-24T10:13:23.304Z,6.03
2023-03-24T10:18:39.376Z,7.63
2023-03-24T10:23:56.078Z,6.30
2023-03-24T10:29:23.623Z,8.13
2023-03-24T10:34:31.219Z,6.00
2023-03-24T10:39:44.039Z,7.05
2023-03-24T10:44:53.793Z,7.88
2023-03-24T10:50:11.865Z,6.75
2023-03-24T10:55:21.151Z,6.60
2023-03-24T11:00:32.243Z,6.60
2023-03-24T11:05:39.356Z,7.03
2023-03-24T11:10:44.539Z,7.32
2023-03-24T11:15:59.186Z,6.55
2023-03-24T11:21:06.398Z,6.97
2023-03-24T11:26:15.953Z,6.85
2023-03-24T11:31:26.056Z,6.50
2023-03-24T11:36:47.309Z,7.35
2023-03-24T11:42:05.998Z,7.50
2023-03-24T11:47:15.161Z,6.70
2023-03-24T11:52:24.872Z,7.13
2023-03-24T11:57:47.409Z,7.80
2023-03-24T12:03:23.452Z,6.53
2023-03-24T12:08:43.056Z,6.97
2023-03-24T12:13:50.752Z,7.32
2023-03-24T12:19:24.241Z,6.72
2023-03-24T12:24:40.474Z,6.78
2023-03-24T12:30:00.652Z,7.97
2023-03-24T12:35:39.538Z,8.82
2023-03-24T12:41:03.992Z,7.03
2023-03-24T12:46:22.495Z,9.10
2023-03-24T12:51:35.209Z,7.18
2023-03-24T12:56:47.090Z,8.68
2023-03-24T13:01:55.605Z,8.30
2023-03-24T13:07:06.722Z,7.53
2023-03-24T13:12:17.189Z,8.15
2023-03-24T13:17:28.125Z,7.07
2023-03-24T13:22:35.539Z,7.35
2023-03-24T13:27:44.421Z,7.80
2023-03-24T13:32:52.333Z,8.70
2023-03-24T13:38:04.529Z,8.63
2023-03-24T13:43:14.371Z,9.48
2023-03-24T13:53:39.439Z,8.38
2023-03-24T13:58:52.400Z,8.40
2023-03-24T14:04:32.193Z,9.68
2023-03-24T14:09:56.325Z,11.23
2023-03-24T14:15:22.379Z,9.95
2023-03-24T14:20:35.551Z,9.32
2023-03-24T14:25:39.759Z,9.43
2023-03-24T14:31:02.270Z,9.68
2023-03-24T14:36:12.366Z,8.57
2023-03-24T14:41:23.570Z,7.47
2023-03-24T14:46:39.543Z,7.82
2023-03-24T14:51:49.738Z,8.27
2023-03-24T14:56:56.176Z,8.60
2023-03-24T15:02:07.142Z,4.93
2023-03-24T15:07:15.035Z,4.55
2023-03-24T15:12:19.438Z,5.57
2023-03-24T15:17:26.766Z,5.22
2023-03-24T15:22:42.903Z,5.97
2023-03-24T15:27:52.288Z,6.35
2023-03-24T15:32:58.334Z,5.50
2023-03-24T15:38:04.187Z,6.25
2023-03-24T15:43:18.342Z,6.05
2023-03-24T15:48:26.830Z,7.40
2023-03-24T15:53:39.728Z,6.80
2023-03-24T15:58:48.969Z,11.30
2023-03-24T16:03:56.466Z,7.82
2023-03-24T16:09:03.259Z,7.00
2023-03-24T16:14:24.529Z,6.90
2023-03-24T16:19:30.515Z,7.68
2023-03-24T16:24:34.913Z,9.25
2023-03-24T16:29:39.055Z,9.10
2023-03-24T16:34:44.899Z,8.77
2023-03-24T16:39:49.008Z,10.05
2023-03-24T16:44:53.876Z,11.07
2023-03-24T16:49:59.635Z,11.35
2023-03-24T16:55:04.235Z,14.77
2023-03-24T17:00:11.786Z,10.88
2023-03-24T17:05:24.524Z,11.32
2023-03-24T17:10:29.537Z,15.05
2023-03-24T17:15:33.929Z,15.63
2023-03-24T17:20:40.766Z,12.60
2023-03-24T17:25:46.536Z,14.45
2023-03-24T17:30:51.329Z,15.00
2023-03-24T17:35:57.624Z,12.90
2023-03-24T17:41:02.182Z,14.68
2023-03-24T17:46:06.797Z,13.15
2023-03-24T17:51:12.628Z,12.75
2023-03-24T17:56:16.939Z,11.98
2023-03-24T18:01:21.484Z,12.80
2023-03-24T18:06:27.795Z,13.65
2023-03-24T18:11:32.376Z,12.95
2023-03-24T18:16:37.240Z,14.15
2023-03-24T18:21:42.853Z,17.65
2023-03-24T18:26:49.169Z,18.67
2023-03-24T18:31:55.005Z,16.45
2023-03-24T18:37:00.788Z,14.60
2023-03-24T18:42:05.106Z,22.50
2023-03-24T18:47:11.610Z,27.80
2023-03-24T18:52:18.328Z,19.20
2023-03-24T18:57:22.633Z,13.70
2023-03-24T19:02:27.596Z,14.55
2023-03-24T19:07:33.855Z,20.35
2023-03-24T19:12:38.350Z,12.52
2023-03-24T19:17:43.268Z,13.95
2023-03-24T19:22:49.002Z,14.45
2023-03-24T19:27:53.345Z,12.90
2023-03-24T19:32:58.243Z,14.40
2023-03-24T19:38:04.481Z,13.90
2023-03-24T19:43:08.855Z,13.70
2023-03-24T19:48:13.694Z,12.40
2023-03-24T19:53:20.198Z,10.75
2023-03-24T19:58:24.747Z,12.48
2023-03-24T20:03:29.290Z,7.93
2023-03-24T20:08:35.096Z,8.75
2023-03-24T20:13:39.498Z,9.95
2023-03-24T20:18:44.342Z,9.93
2023-03-24T20:23:49.951Z,10.20
2023-03-24T20:28:54.460Z,10.10
2023-03-24T20:33:59.480Z,8.40
2023-03-24T20:39:06.190Z,7.18
2023-03-24T20:44:10.577Z,8.02
2023-03-24T20:49:16.833Z,5.78
2023-03-24T20:54:23.047Z,8.02
2023-03-24T20:59:27.196Z,5.93
2023-03-24T21:04:31.367Z,6.72
2023-03-24T21:09:37.522Z,8.45
2023-03-24T21:14:42.654Z,8.68
2023-03-24T21:19:47.311Z,10.68
2023-03-24T21:24:53.668Z,9.02
2023-03-24T21:29:57.828Z,8.88
2023-03-24T21:35:02.247Z,9.85
2023-03-24T21:40:10.658Z,9.98
2023-03-24T21:45:17.140Z,11.18
2023-03-24T21:50:23.495Z,8.95
2023-03-24T21:55:32.009Z,7.70
2023-03-24T22:00:40.235Z,7.35
2023-03-24T22:05:45.746Z,7.15
2023-03-24T22:10:54.532Z,6.13
2023-03-24T22:16:01.296Z,7.05
2023-03-24T22:21:08.778Z,6.90
2023-03-24T22:26:17.049Z,7.00
2023-03-24T22:31:23.272Z,8.95
2023-03-24T22:36:27.426Z,8.32
2023-03-24T22:41:33.276Z,7.75
2023-03-24T22:46:37.756Z,7.85
2023-03-24T22:51:42.899Z,7.13
2023-03-24T22:56:48.816Z,14.15
2023-03-24T23:02:06.440Z,7.93
2023-03-24T23:07:14.005Z,9.85
2023-03-24T23:12:19.564Z,8.70
2023-03-24T23:17:27.395Z,8.70
2023-03-24T23:22:33.732Z,6.90
2023-03-24T23:27:39.986Z,7.63
2023-03-24T23:32:47.229Z,8.20
2023-03-24T23:37:52.148Z,7.43
2023-03-24T23:42:58.038Z,8.63
2023-03-24T23:48:02.231Z,8.23
2023-03-24T23:53:06.755Z,8.25
2023-03-24T23:58:12.317Z,8.70
